createdAt,value
2022-09-12T00:01:17.302Z,12.38
2022-09-12T00:03:45.450Z,12.80
2022-09-12T00:06:24.787Z,15.10
2022-09-12T00:08:55.982Z,13.77
2022-09-12T00:13:50.962Z,11.73
2022-09-12T00:16:22.357Z,11.75
2022-09-12T00:18:50.467Z,9.52
2022-09-12T00:21:18.604Z,13.05
2022-09-12T00:23:46.611Z,15.63
2022-09-12T00:26:14.954Z,13.40
2022-09-12T00:28:42.606Z,14.68
2022-09-12T00:31:13.659Z,11.73
2022-09-12T00:33:42.853Z,15.98
2022-09-12T00:36:14.896Z,12.98
2022-09-12T00:38:43.639Z,12.27
2022-09-12T00:41:26.843Z,11.35
2022-09-12T00:44:10.895Z,13.15
2022-09-12T00:46:41.849Z,13.65
2022-09-12T00:49:54.416Z,14.98
2022-09-12T00:52:31.599Z,13.63
2022-09-12T00:55:10.778Z,14.35
2022-09-12T00:57:47.506Z,15.90
2022-09-12T01:00:17.421Z,17.67
2022-09-12T01:02:51.612Z,14.70
2022-09-12T01:05:19.919Z,15.98
2022-09-12T01:07:48.968Z,16.98
2022-09-12T01:10:17.282Z,16.40
2022-09-12T01:12:44.785Z,15.55
2022-09-12T01:15:12.427Z,13.07
2022-09-12T01:18:09.326Z,14.15
2022-09-12T01:21:00.172Z,18.38
2022-09-12T01:23:48.540Z,14.88
2022-09-12T01:26:53.184Z,16.10
2022-09-12T01:29:39.146Z,16.73
2022-09-12T01:32:26.830Z,12.05
2022-09-12T01:35:21.445Z,14.68
2022-09-12T01:37:49.523Z,16.42
2022-09-12T01:40:41.639Z,12.35
2022-09-12T01:43:18.376Z,12.35
2022-09-12T01:45:59.853Z,13.23
2022-09-12T01:48:33.231Z,16.75
2022-09-12T01:51:11.151Z,15.15
2022-09-12T01:53:44.420Z,15.88
2022-09-12T01:56:26.525Z,18.00
2022-09-12T01:59:05.252Z,15.70
2022-09-12T02:01:36.568Z,17.52
2022-09-12T02:04:30.022Z,15.23
2022-09-12T02:07:06.921Z,21.70
2022-09-12T02:09:46.441Z,14.23
2022-09-12T02:12:18.503Z,17.15
2022-09-12T02:14:52.568Z,16.23
2022-09-12T02:17:23.592Z,15.35
2022-09-12T02:22:29.360Z,15.05
2022-09-12T02:25:01.130Z,17.70
2022-09-12T02:27:37.823Z,13.30
2022-09-12T02:30:06.963Z,12.95
2022-09-12T02:32:43.950Z,17.63
2022-09-12T02:35:34.875Z,14.65
2022-09-12T02:38:13.180Z,12.93
2022-09-12T02:40:41.401Z,17.73
2022-09-12T02:43:09.178Z,12.35
2022-09-12T02:45:37.170Z,15.68
2022-09-12T02:48:21.312Z,14.82
2022-09-12T02:50:48.773Z,15.40
2022-09-12T02:53:18.105Z,16.67
2022-09-12T02:55:45.968Z,12.25
2022-09-12T02:58:24.687Z,16.38
2022-09-12T03:01:11.184Z,13.20
2022-09-12T03:03:52.992Z,16.95
2022-09-12T03:06:37.255Z,15.02
2022-09-12T03:09:19.226Z,16.88
2022-09-12T03:12:11.912Z,19.58
2022-09-12T03:15:17.524Z,11.10
2022-09-12T03:17:54.124Z,12.55
2022-09-12T03:20:45.543Z,14.55
2022-09-12T03:23:38.605Z,11.63
2022-09-12T03:26:13.580Z,14.73
2022-09-12T03:28:42.635Z,16.42
2022-09-12T03:31:15.742Z,13.43
2022-09-12T03:33:43.669Z,14.93
2022-09-12T03:36:37.172Z,12.07
2022-09-12T03:39:04.566Z,13.75
2022-09-12T03:41:31.916Z,13.05
2022-09-12T03:43:59.601Z,15.85
2022-09-12T03:46:27.027Z,13.88
2022-09-12T03:48:54.371Z,13.05
2022-09-12T03:51:22.040Z,10.35
2022-09-12T03:53:49.509Z,13.98
2022-09-12T03:56:18.535Z,16.27
2022-09-12T03:58:46.024Z,12.80
2022-09-12T04:01:16.417Z,11.25
2022-09-12T04:03:45.539Z,13.35
2022-09-12T04:06:15.330Z,14.15
2022-09-12T04:08:44.092Z,11.32
2022-09-12T04:11:14.340Z,10.15
2022-09-12T04:13:44.036Z,10.20
2022-09-12T04:16:12.897Z,11.40
2022-09-12T04:18:40.588Z,10.52
2022-09-12T04:21:13.441Z,11.15
2022-09-12T04:23:40.906Z,9.45
2022-09-12T04:26:08.727Z,9.05
2022-09-12T04:28:38.213Z,12.30
2022-09-12T04:31:12.302Z,12.32
2022-09-12T04:33:40.020Z,13.55
2022-09-12T04:36:09.988Z,10.32
2022-09-12T04:38:37.865Z,8.02
2022-09-12T04:41:23.887Z,11.38
2022-09-12T04:43:59.180Z,9.40
2022-09-12T04:46:27.339Z,12.30
2022-09-12T04:48:57.059Z,13.77
2022-09-12T04:51:31.052Z,11.52
2022-09-12T04:54:01.001Z,10.32
2022-09-12T04:56:29.676Z,11.73
2022-09-12T04:58:58.958Z,10.95
2022-09-12T05:01:28.383Z,12.30
2022-09-12T05:03:56.729Z,10.55
2022-09-12T05:06:26.894Z,11.57
2022-09-12T05:08:56.100Z,11.55
2022-09-12T05:11:33.024Z,10.80
2022-09-12T05:14:09.924Z,9.75
2022-09-12T05:16:37.731Z,10.27
2022-09-12T05:19:05.082Z,9.70
2022-09-12T05:21:32.544Z,11.52
2022-09-12T05:24:00.157Z,9.32
2022-09-12T05:26:28.026Z,9.65
2022-09-12T05:28:55.787Z,9.90
2022-09-12T05:31:25.423Z,12.23
2022-09-12T05:33:54.391Z,12.35
2022-09-12T05:36:27.456Z,12.73
2022-09-12T05:38:55.003Z,12.57
2022-09-12T05:41:25.204Z,9.90
2022-09-12T05:43:57.968Z,10.32
2022-09-12T05:46:27.554Z,12.55
2022-09-12T05:48:56.847Z,9.10
2022-09-12T05:51:26.664Z,7.75
2022-09-12T05:53:56.856Z,8.35
2022-09-12T05:56:29.088Z,12.38
2022-09-12T05:59:05.362Z,12.05
2022-09-12T06:01:34.571Z,11.32
2022-09-12T06:04:04.639Z,9.45
2022-09-12T06:06:35.262Z,11.53
2022-09-12T06:09:04.515Z,8.95
2022-09-12T06:11:34.208Z,10.30
2022-09-12T06:14:01.786Z,11.20
2022-09-12T06:16:31.419Z,11.27
2022-09-12T06:19:04.791Z,9.02
2022-09-12T06:21:32.452Z,13.80
2022-09-12T06:24:00.101Z,10.20
2022-09-12T06:26:29.280Z,10.30
2022-09-12T06:28:58.115Z,8.13
2022-09-12T06:31:31.513Z,11.15
2022-09-12T06:34:02.439Z,11.68
2022-09-12T06:39:01.301Z,10.30
2022-09-12T06:41:29.923Z,20.33
2022-09-12T06:43:58.163Z,8.55
2022-09-12T06:46:26.647Z,9.95
2022-09-12T06:48:56.381Z,7.55
2022-09-12T06:51:24.569Z,8.23
2022-09-12T06:53:54.627Z,8.85
2022-09-12T06:56:24.132Z,9.43
2022-09-12T06:58:52.556Z,9.93
2022-09-12T07:01:22.295Z,10.95
2022-09-12T07:03:55.841Z,7.57
2022-09-12T07:06:29.879Z,10.73
2022-09-12T07:09:01.812Z,12.20
2022-09-12T07:11:32.560Z,10.95
2022-09-12T07:14:02.249Z,10.73
2022-09-12T07:16:30.379Z,8.13
2022-09-12T07:19:00.410Z,7.28
2022-09-12T07:21:28.912Z,10.35
2022-09-12T07:23:58.063Z,9.55
2022-09-12T07:26:27.603Z,10.45
2022-09-12T07:29:07.842Z,8.75
2022-09-12T07:31:40.445Z,7.93
2022-09-12T07:34:07.960Z,8.95
2022-09-12T07:36:35.556Z,10.25
2022-09-12T07:39:03.505Z,9.55
2022-09-12T07:41:33.952Z,9.32
2022-09-12T07:44:03.442Z,8.32
2022-09-12T07:46:31.558Z,7.88
2022-09-12T07:49:00.754Z,9.18
2022-09-12T07:51:30.219Z,7.60
2022-09-12T07:53:57.799Z,8.02
2022-09-12T07:56:30.121Z,11.05
2022-09-12T07:58:58.903Z,7.72
2022-09-12T08:01:26.959Z,10.70
2022-09-12T08:03:57.191Z,9.85
2022-09-12T08:06:25.714Z,9.85
2022-09-12T08:08:55.613Z,12.00
2022-09-12T08:11:25.048Z,4.60
2022-09-12T08:13:55.777Z,11.43
2022-09-12T08:16:26.741Z,7.90
2022-09-12T08:18:54.491Z,7.18
2022-09-12T08:21:24.414Z,9.85
2022-09-12T08:23:54.127Z,9.47
2022-09-12T08:26:21.896Z,8.25
2022-09-12T08:28:49.631Z,9.20
2022-09-12T08:31:20.600Z,7.72
2022-09-12T08:33:48.217Z,6.50
2022-09-12T08:36:17.879Z,4.93
2022-09-12T08:38:46.739Z,11.45
2022-09-12T08:41:41.211Z,4.10
2022-09-12T08:44:17.629Z,6.93
2022-09-12T08:46:53.522Z,8.70
2022-09-12T08:49:29.721Z,8.20
2022-09-12T08:52:01.562Z,9.35
2022-09-12T08:54:31.303Z,7.88
2022-09-12T08:57:03.596Z,6.50
2022-09-12T08:59:44.801Z,5.78
2022-09-12T09:02:15.200Z,11.40
2022-09-12T09:05:03.323Z,11.27
2022-09-12T09:08:15.998Z,8.80
2022-09-12T09:11:01.391Z,6.70
2022-09-12T09:14:15.387Z,7.55
2022-09-12T09:16:45.153Z,5.65
2022-09-12T09:19:26.712Z,6.00
2022-09-12T09:21:58.955Z,9.38
2022-09-12T09:24:40.674Z,6.15
2022-09-12T09:27:40.344Z,8.75
2022-09-12T09:30:15.526Z,6.85
2022-09-12T09:32:47.692Z,5.07
2022-09-12T09:35:18.945Z,4.50
2022-09-12T09:37:58.804Z,6.60
2022-09-12T09:40:38.315Z,6.07
2022-09-12T09:43:23.087Z,8.27
2022-09-12T09:45:52.675Z,6.35
2022-09-12T09:48:33.757Z,6.90
2022-09-12T09:51:07.285Z,8.75
2022-09-12T09:53:46.948Z,6.47
2022-09-12T09:56:23.142Z,6.82
2022-09-12T09:58:50.681Z,5.82
2022-09-12T10:01:19.334Z,6.43
2022-09-12T10:03:55.397Z,6.97
2022-09-12T10:06:32.191Z,8.68
2022-09-12T10:09:13.214Z,5.15
2022-09-12T10:11:45.685Z,10.35
2022-09-12T10:14:38.472Z,4.90
2022-09-12T10:17:28.701Z,12.00
2022-09-12T10:20:19.765Z,8.68
2022-09-12T10:22:48.229Z,8.77
2022-09-12T10:25:18.634Z,8.82
2022-09-12T10:27:59.412Z,3.40
2022-09-12T10:33:07.355Z,7.22
2022-09-12T10:35:46.146Z,5.13
2022-09-12T10:38:28.536Z,5.43
2022-09-12T10:41:16.183Z,7.07
2022-09-12T10:43:43.761Z,5.53
2022-09-12T10:46:21.984Z,8.60
2022-09-12T10:48:51.539Z,5.30
2022-09-12T10:51:25.062Z,4.72
2022-09-12T10:53:56.588Z,3.88
2022-09-12T10:56:50.221Z,6.70
2022-09-12T10:59:41.332Z,5.10
2022-09-12T11:02:28.470Z,3.22
2022-09-12T11:05:10.828Z,4.82
2022-09-12T11:07:40.974Z,8.48
2022-09-12T11:10:27.054Z,2.22
2022-09-12T11:13:21.243Z,4.60
2022-09-12T11:16:20.000Z,6.93
2022-09-12T11:19:26.813Z,5.85
2022-09-12T11:21:57.296Z,6.10
2022-09-12T11:24:42.640Z,4.38
2022-09-12T11:27:10.001Z,5.82
2022-09-12T11:29:50.827Z,3.40
2022-09-12T11:32:41.445Z,5.95
2022-09-12T11:35:29.694Z,3.70
2022-09-12T11:38:00.526Z,6.45
2022-09-12T11:41:06.872Z,5.32
2022-09-12T11:43:43.136Z,4.68
2022-09-12T11:46:25.233Z,5.35
2022-09-12T11:49:05.246Z,3.97
2022-09-12T11:51:54.053Z,4.50
2022-09-12T11:55:03.823Z,4.30
2022-09-12T11:57:39.934Z,7.45
2022-09-12T12:00:40.083Z,3.35
2022-09-12T12:03:16.061Z,5.38
2022-09-12T12:06:04.198Z,6.18
2022-09-12T12:08:37.573Z,3.90
2022-09-12T12:11:08.107Z,4.20
2022-09-12T12:13:40.292Z,4.88
2022-09-12T12:16:11.751Z,2.95
2022-09-12T12:18:40.737Z,4.07
2022-09-12T12:21:29.319Z,5.40
2022-09-12T12:24:04.891Z,2.80
2022-09-12T12:26:41.276Z,6.07
2022-09-12T12:29:19.494Z,5.40
2022-09-12T12:32:04.804Z,2.53
2022-09-12T12:34:42.236Z,5.03
2022-09-12T12:37:22.090Z,5.00
2022-09-12T12:39:50.422Z,4.40
2022-09-12T12:42:35.581Z,4.95
2022-09-12T12:45:08.659Z,4.13
2022-09-12T12:47:39.367Z,5.20
2022-09-12T12:50:28.106Z,4.90
2022-09-12T12:53:28.032Z,4.50
2022-09-12T12:55:57.113Z,3.65
2022-09-12T12:58:40.708Z,3.58
2022-09-12T13:01:18.761Z,1.70
2022-09-12T13:04:01.328Z,6.30
2022-09-12T13:06:40.406Z,7.93
2022-09-12T13:09:19.749Z,5.47
2022-09-12T13:11:54.088Z,2.13
2022-09-12T13:14:42.452Z,3.13
2022-09-12T13:17:16.336Z,3.08
2022-09-12T13:19:44.401Z,4.45
2022-09-12T13:22:11.758Z,4.15
2022-09-12T13:24:48.957Z,3.58
2022-09-12T13:27:25.435Z,4.22
2022-09-12T13:30:13.548Z,3.13
2022-09-12T13:32:42.434Z,3.25
2022-09-12T13:35:25.771Z,5.68
2022-09-12T13:38:05.721Z,2.08
2022-09-12T13:41:09.940Z,3.67
2022-09-12T13:43:43.535Z,3.13
2022-09-12T13:46:17.680Z,5.03
2022-09-12T13:48:45.572Z,3.72
2022-09-12T13:51:26.040Z,2.25
2022-09-12T13:53:56.349Z,2.38
2022-09-12T13:56:23.755Z,4.80
2022-09-12T13:58:56.948Z,1.60
2022-09-12T14:01:39.773Z,4.63
2022-09-12T14:04:40.185Z,4.38
2022-09-12T14:07:22.235Z,17.58
2022-09-12T14:09:58.671Z,8.98
2022-09-12T14:12:39.142Z,5.55
2022-09-12T14:15:09.582Z,9.70
2022-09-12T14:20:14.045Z,3.00
2022-09-12T14:22:41.741Z,4.53
2022-09-12T14:25:17.076Z,5.00
2022-09-12T14:27:50.711Z,4.28
2022-09-12T14:30:36.431Z,2.85
2022-09-12T14:33:09.844Z,3.13
2022-09-12T14:35:42.728Z,4.40
2022-09-12T14:38:16.743Z,3.72
2022-09-12T14:40:49.652Z,3.17
2022-09-12T14:43:30.453Z,2.70
2022-09-12T14:46:05.608Z,1.98
2022-09-12T14:48:37.056Z,5.50
2022-09-12T14:51:05.330Z,2.78
2022-09-12T14:53:36.189Z,3.92
2022-09-12T14:56:07.291Z,2.65
2022-09-12T14:58:35.446Z,3.00
2022-09-12T15:01:05.902Z,4.25
2022-09-12T15:03:37.390Z,4.18
2022-09-12T15:06:08.087Z,3.20
2022-09-12T15:08:35.678Z,2.83
2022-09-12T15:11:06.974Z,6.22
2022-09-12T15:13:40.299Z,5.90
2022-09-12T15:16:10.952Z,1.20
2022-09-12T15:21:08.240Z,3.80
2022-09-12T15:23:45.748Z,3.57
2022-09-12T15:26:18.619Z,3.17
2022-09-12T15:28:46.280Z,5.03
2022-09-12T15:31:27.484Z,3.10
2022-09-12T15:33:56.318Z,4.53
2022-09-12T15:36:24.832Z,1.95
2022-09-12T15:38:53.159Z,3.67
2022-09-12T15:41:23.506Z,3.60
2022-09-12T15:43:50.988Z,4.78
2022-09-12T15:46:19.382Z,5.10
2022-09-12T15:48:46.811Z,2.80
2022-09-12T15:51:16.899Z,9.07
2022-09-12T15:53:45.367Z,3.78
2022-09-12T15:56:13.972Z,3.78
2022-09-12T15:58:57.132Z,6.68
2022-09-12T16:01:27.064Z,3.25
2022-09-12T16:03:54.590Z,2.80
2022-09-12T16:06:22.545Z,9.18
2022-09-12T16:08:49.914Z,2.65
2022-09-12T16:11:24.697Z,4.00
2022-09-12T16:13:53.959Z,5.97
2022-09-12T16:16:21.453Z,4.35
2022-09-12T16:18:48.933Z,4.78
2022-09-12T16:21:16.583Z,5.20
2022-09-12T16:23:45.134Z,2.55
2022-09-12T16:26:12.671Z,2.63
2022-09-12T16:28:40.323Z,4.07
2022-09-12T16:31:09.215Z,3.75
2022-09-12T16:33:38.477Z,3.30
2022-09-12T16:36:09.313Z,3.63
2022-09-12T16:38:44.103Z,3.30
2022-09-12T16:41:12.770Z,2.50
2022-09-12T16:43:40.824Z,2.50
2022-09-12T16:46:09.833Z,5.50
2022-09-12T16:48:38.045Z,6.13
2022-09-12T16:51:06.938Z,4.07
2022-09-12T16:53:37.386Z,4.53
2022-09-12T16:56:06.017Z,5.40
2022-09-12T16:58:38.512Z,4.05
2022-09-12T17:01:11.087Z,3.13
2022-09-12T17:03:38.877Z,4.77
2022-09-12T17:06:18.382Z,11.98
2022-09-12T17:08:48.610Z,4.43
2022-09-12T17:11:19.570Z,3.10
2022-09-12T17:16:40.442Z,4.15
2022-09-12T17:19:08.678Z,8.73
2022-09-12T17:21:36.490Z,3.90
2022-09-12T17:24:04.478Z,4.13
2022-09-12T17:26:31.840Z,5.43
2022-09-12T17:28:59.320Z,4.07
2022-09-12T17:31:27.728Z,4.03
2022-09-12T17:33:59.105Z,6.60
2022-09-12T17:36:27.516Z,4.35
2022-09-12T17:38:55.054Z,3.33
2022-09-12T17:41:25.587Z,7.07
2022-09-12T17:43:57.727Z,4.70
2022-09-12T17:46:29.804Z,3.60
2022-09-12T17:48:58.569Z,4.95
2022-09-12T17:51:28.934Z,7.20
2022-09-12T17:54:05.577Z,4.80
2022-09-12T17:56:34.341Z,3.55
2022-09-12T17:59:02.054Z,4.70
2022-09-12T18:01:48.293Z,5.05
2022-09-12T18:04:16.539Z,7.55
2022-09-12T18:06:48.799Z,7.68
2022-09-12T18:09:19.622Z,4.05
2022-09-12T18:14:16.007Z,5.38
2022-09-12T18:16:45.703Z,7.65
2022-09-12T18:19:13.737Z,10.32
2022-09-12T18:21:41.159Z,4.13
2022-09-12T18:24:09.647Z,5.18
2022-09-12T18:26:37.431Z,3.30
2022-09-12T18:29:05.864Z,7.30
2022-09-12T18:31:33.248Z,7.45
2022-09-12T18:34:01.086Z,8.90
2022-09-12T18:36:30.681Z,9.80
2022-09-12T18:38:59.305Z,6.57
2022-09-12T18:41:28.894Z,5.38
2022-09-12T18:44:00.547Z,8.27
2022-09-12T18:46:29.354Z,9.38
2022-09-12T18:48:58.005Z,11.15
2022-09-12T18:51:31.465Z,10.10
2022-09-12T18:54:01.412Z,5.97
2022-09-12T18:56:35.175Z,6.82
2022-09-12T18:59:05.360Z,5.53
2022-09-12T19:01:35.566Z,7.40
2022-09-12T19:04:07.739Z,6.43
2022-09-12T19:06:46.347Z,3.42
2022-09-12T19:09:16.408Z,5.70
2022-09-12T19:11:49.558Z,8.75
2022-09-12T19:14:19.643Z,9.18
2022-09-12T19:16:47.106Z,7.55
2022-09-12T19:19:14.548Z,4.78
2022-09-12T19:21:42.546Z,6.47
2022-09-12T19:24:10.904Z,8.07
2022-09-12T19:26:39.551Z,4.13
2022-09-12T19:29:07.952Z,2.88
2022-09-12T19:31:35.609Z,5.57
2022-09-12T19:34:05.381Z,2.92
2022-09-12T19:36:45.002Z,3.42
2022-09-12T19:39:13.523Z,10.63
2022-09-12T19:41:40.982Z,6.88
2022-09-12T19:44:08.387Z,5.60
2022-09-12T19:46:35.815Z,5.13
2022-09-12T19:49:03.772Z,3.03
2022-09-12T19:51:31.458Z,5.60
2022-09-12T19:53:58.831Z,3.92
2022-09-12T19:56:26.277Z,7.55
2022-09-12T19:58:56.622Z,4.93
2022-09-12T20:03:53.873Z,7.90
2022-09-12T20:06:22.598Z,7.75
2022-09-12T20:08:50.097Z,3.95
2022-09-12T20:11:19.520Z,5.32
2022-09-12T20:13:47.517Z,5.55
2022-09-12T20:16:26.903Z,3.65
2022-09-12T20:19:03.210Z,2.97
2022-09-12T20:21:32.665Z,6.13
2022-09-12T20:24:02.553Z,5.35
2022-09-12T20:26:30.712Z,6.80
2022-09-12T20:28:58.237Z,7.88
2022-09-12T20:31:26.213Z,9.48
2022-09-12T20:33:55.045Z,8.68
2022-09-12T20:36:23.272Z,7.32
2022-09-12T20:38:56.971Z,8.32
2022-09-12T20:41:25.925Z,6.57
2022-09-12T20:43:54.957Z,7.13
2022-09-12T20:46:23.592Z,8.52
2022-09-12T20:48:52.295Z,10.52
2022-09-12T20:51:23.046Z,17.60
2022-09-12T20:56:22.196Z,9.00
2022-09-12T20:58:50.629Z,6.05
2022-09-12T21:01:18.471Z,7.45
2022-09-12T21:03:47.445Z,5.30
2022-09-12T21:06:18.875Z,8.05
2022-09-12T21:08:48.520Z,7.32
2022-09-12T21:11:17.204Z,8.55
2022-09-12T21:13:44.769Z,6.68
2022-09-12T21:16:14.999Z,6.03
2022-09-12T21:18:42.935Z,8.30
2022-09-12T21:21:12.284Z,9.15
2022-09-12T21:23:40.387Z,7.82
2022-09-12T21:26:08.646Z,7.30
2022-09-12T21:28:36.612Z,5.82
2022-09-12T21:31:04.390Z,9.60
2022-09-12T21:33:31.889Z,9.70
2022-09-12T21:36:03.829Z,5.20
2022-09-12T21:38:32.379Z,8.93
2022-09-12T21:41:10.587Z,8.23
2022-09-12T21:43:38.885Z,6.82
2022-09-12T21:46:09.717Z,8.25
2022-09-12T21:48:37.619Z,11.88
2022-09-12T21:51:05.695Z,6.13
2022-09-12T21:53:33.174Z,8.02
2022-09-12T21:56:02.561Z,12.90
2022-09-12T21:58:30.007Z,6.88
2022-09-12T22:00:57.493Z,8.50
2022-09-12T22:03:26.103Z,5.88
2022-09-12T22:06:01.628Z,6.57
2022-09-12T22:08:31.002Z,6.45
2022-09-12T22:11:03.409Z,8.00
2022-09-12T22:13:32.245Z,8.95
2022-09-12T22:16:02.824Z,13.70
2022-09-12T22:18:33.972Z,9.25
2022-09-12T22:21:12.455Z,7.85
2022-09-12T22:23:58.330Z,8.30
2022-09-12T22:26:27.015Z,8.20
2022-09-12T22:28:54.632Z,10.20
2022-09-12T22:31:22.692Z,7.03
2022-09-12T22:33:51.479Z,12.80
2022-09-12T22:36:18.874Z,6.65
2022-09-12T22:38:46.412Z,6.53
2022-09-12T22:41:13.798Z,9.23
2022-09-12T22:43:41.393Z,8.75
2022-09-12T22:46:12.390Z,5.38
2022-09-12T22:48:40.733Z,6.25
2022-09-12T22:51:09.002Z,16.23
2022-09-12T22:53:37.066Z,6.82
2022-09-12T22:56:05.189Z,6.70
2022-09-12T22:58:34.089Z,5.25
2022-09-12T23:01:01.476Z,6.70
2022-09-12T23:03:28.946Z,6.57
2022-09-12T23:05:56.387Z,9.05
2022-09-12T23:08:24.117Z,6.45
2022-09-12T23:10:51.784Z,9.70
2022-09-12T23:13:19.160Z,7.97
2022-09-12T23:15:46.564Z,7.47
2022-09-12T23:18:13.957Z,6.20
2022-09-12T23:20:41.356Z,6.82
2022-09-12T23:23:09.673Z,6.50
2022-09-12T23:25:37.273Z,7.28
2022-09-12T23:28:04.619Z,34.40
2022-09-12T23:30:32.052Z,11.90
2022-09-12T23:32:59.472Z,13.60
2022-09-12T23:35:26.827Z,6.50
2022-09-12T23:37:54.175Z,4.82
2022-09-12T23:40:21.585Z,7.10
2022-09-12T23:42:49.088Z,8.10
2022-09-12T23:45:16.550Z,7.00
2022-09-12T23:47:43.919Z,6.32
2022-09-12T23:50:11.263Z,7.60
2022-09-12T23:52:40.205Z,7.00
2022-09-12T23:55:08.756Z,8.32
2022-09-12T23:57:35.990Z,10.85
